Delta Virtual Airport Information Service

Mexico City International Airport

ICAO: MMMX Country: Mexico
Latitude: 19.4363 Longitude: -99.072
Latest Arrival : AMX2966152 (KMIA-MMMX) Latest Departure : AMX160 (MMMX-MMGL)


WX CaptureLIVE
Data provided by noaa.gov | Fetched at 09:46:35

METAR : MMMX 041345Z 00000KT 5SM OVC015 16/14 A3042 NOSIG RMK 8/5// HZY BINOVC

TAF : MMMX 041004Z 0412/0518 13005KT 5SM HZ SCT020 BKN080 TX23/0421Z TN15/0412Z TEMPO 0412/0415 3SM BR HZ BKN015 FM041600 13005KT 5SM HZ SCT015 BKN080 FM041800 13010KT P6SM SCT020 BKN200 TEMPO 0422/0502 5SM TSRA BKN020CB FM050200 13005KT 6SM HZ SCT020 BKN080 TEMPO 0502/0506 6SM RA BKN020CB FM051800 13010KT P6SM SCT020 BKN100


Runway Data for MMMX
Data provided by openaviationdata.com

Runway ID Mag Var Hdg Length Elevation Surface ILS Freq ILS Id ILS Slope
05L 7 52° 12966 ft 7314 ft Asphalt -- -- --
05R 7 52° 12795 ft 7314 ft Asphalt 109.1 IMWX 3
23L 7 232° 12795 ft 7314 ft Asphalt 109.7 IMEX 3
23R 7 232° 12966 ft 7314 ft Asphalt -- -- --

Mexico City International Airport, Mexico
Use only for reference purposes



Not for navigational purposes.